Terminal Aerodrome Forecast
Issued by NWS

Home | Current Version | Previous Version | Text Only | Print | Product List | Glossary On
Versions: 1 2 3 4 5 6 7 8 9 10 11 12 13 14 15 16 17 18 19 20 21 22 23 24
648
FTUS43 KLSX 081132
TAFUIN
TAF
KUIN 081132Z 0812/0912 30022G32KT 6SM -SN BR OVC020
      TEMPO 0812/0816 2SM -SN BR BKN006
     FM090600 32016G26KT P6SM OVC025=

USA.gov is the U.S. government's official web portal to all federal, state and local government web resources and services.